Time;durP1;ratioP1;P1;durP2;ratioP2;P2;SDS_P1;SDS_P2;PMS_P1;PMS_P2;Temp;Humidity;BMP_temperature;BMP_pressure;BME280_temperature;BME280_humidity;BME280_pressure;Samples;Min_cycle;Max_cycle;Signal;HPM_P1;HPM_P2
2023/01/11 00:00:33;;;;;;;9.30;6.70;;;8.90;99.90;;;;;;4997420;28;20073;-71
2023/01/11 00:03:01;;;;;;;10.70;6.97;;;8.90;99.90;;;;;;4983705;28;20477;-71
2023/01/11 00:05:27;;;;;;;11.02;7.50;;;8.90;99.90;;;;;;4995210;28;20499;-72
2023/01/11 00:07:53;;;;;;;9.85;7.00;;;9.00;99.90;;;;;;4997063;28;20037;-71
2023/01/11 00:10:19;;;;;;;13.48;8.93;;;9.10;99.90;;;;;;4997391;28;20128;-72
2023/01/11 00:12:45;;;;;;;9.82;6.68;;;9.00;99.90;;;;;;5011068;28;20038;-72
2023/01/11 00:15:12;;;;;;;10.70;8.07;;;9.10;99.90;;;;;;5014255;28;20042;-71
2023/01/11 00:17:37;;;;;;;11.73;7.68;;;9.10;99.90;;;;;;5014719;28;20046;-71
2023/01/11 00:20:03;;;;;;;10.30;7.13;;;9.10;99.90;;;;;;5010708;28;20814;-72
2023/01/11 00:22:29;;;;;;;13.95;8.05;;;9.10;99.90;;;;;;5013641;28;20053;-72
2023/01/11 00:24:54;;;;;;;10.32;6.43;;;9.20;99.90;;;;;;4997124;28;20046;-72
2023/01/11 00:27:20;;;;;;;9.48;5.95;;;9.20;99.90;;;;;;4991577;28;20112;-71
2023/01/11 00:29:46;;;;;;;11.18;7.40;;;9.20;99.90;;;;;;4993967;28;20488;-71
2023/01/11 00:32:11;;;;;;;9.75;6.38;;;9.30;99.90;;;;;;4996258;28;20038;-71
2023/01/11 00:34:37;;;;;;;11.63;6.93;;;9.30;99.90;;;;;;5014170;28;20050;-71
2023/01/11 00:37:03;;;;;;;10.43;6.72;;;9.30;99.90;;;;;;4993417;28;20088;-71
2023/01/11 00:39:29;;;;;;;8.32;5.90;;;9.20;99.90;;;;;;5013308;28;20046;-71
2023/01/11 00:50:07;;;;;;;7.93;6.18;;;9.30;99.90;;;;;;4995916;28;20048;-71
2023/01/11 00:52:33;;;;;;;7.43;5.82;;;9.30;99.90;;;;;;4992969;28;20034;-71
2023/01/11 00:54:59;;;;;;;9.00;7.60;;;9.40;99.90;;;;;;4995742;28;20053;-71
2023/01/11 00:57:24;;;;;;;9.23;6.95;;;9.40;99.90;;;;;;4995790;28;20104;-71
2023/01/11 00:59:50;;;;;;;9.65;6.88;;;9.40;99.90;;;;;;5011718;28;20037;-71
2023/01/11 01:02:15;;;;;;;11.98;6.70;;;9.40;99.90;;;;;;4982112;28;20077;-71
2023/01/11 01:04:41;;;;;;;8.35;5.72;;;9.40;99.90;;;;;;4995710;28;20045;-71
2023/01/11 01:07:07;;;;;;;10.23;6.78;;;9.40;99.90;;;;;;4995875;28;20037;-72
2023/01/11 01:09:32;;;;;;;7.95;5.65;;;9.50;99.90;;;;;;4993440;28;20096;-71
2023/01/11 01:12:00;;;;;;;8.80;7.15;;;9.40;99.90;;;;;;5012160;28;20030;-72
2023/01/11 01:14:32;;;;;;;9.52;6.60;;;9.50;99.90;;;;;;5013153;28;20042;-71
2023/01/11 01:17:01;;;;;;;10.80;6.93;;;9.50;99.90;;;;;;5013547;28;20085;-71
2023/01/11 01:19:28;;;;;;;8.65;6.57;;;9.60;99.90;;;;;;5009612;28;20049;-71
2023/01/11 01:21:55;;;;;;;9.50;6.07;;;9.60;99.90;;;;;;5012853;28;20029;-72
2023/01/11 01:24:21;;;;;;;9.98;7.10;;;9.60;99.90;;;;;;4995464;28;20073;-71
2023/01/11 01:26:47;;;;;;;8.15;6.30;;;9.70;99.90;;;;;;5010287;28;20456;-71
2023/01/11 01:29:14;;;;;;;11.88;7.43;;;9.70;99.90;;;;;;4995070;28;20543;-71
2023/01/11 01:31:43;;;;;;;8.48;5.95;;;9.70;99.90;;;;;;4995193;28;20053;-72
2023/01/11 01:34:10;;;;;;;8.73;5.95;;;9.70;99.90;;;;;;5010830;28;20048;-72
2023/01/11 01:36:35;;;;;;;8.55;6.05;;;9.70;99.90;;;;;;5011912;28;20034;-71
2023/01/11 01:39:03;;;;;;;10.50;6.95;;;9.80;99.90;;;;;;4994977;28;20397;-71
2023/01/11 01:41:29;;;;;;;11.30;8.07;;;9.80;99.90;;;;;;4995165;28;20099;-71
2023/01/11 01:44:01;;;;;;;11.68;6.30;;;9.90;99.90;;;;;;4991662;28;20034;-71
2023/01/11 01:46:28;;;;;;;10.23;7.22;;;9.80;99.90;;;;;;5012464;28;20458;-72
2023/01/11 01:49:00;;;;;;;10.00;7.72;;;9.80;99.90;;;;;;4995270;28;20046;-72
2023/01/11 01:51:53;;;;;;;9.90;7.28;;;9.90;99.90;;;;;;4992049;28;20730;-71
2023/01/11 01:54:28;;;;;;;9.52;6.68;;;10.00;99.90;;;;;;4987883;28;20045;-71
2023/01/11 01:57:00;;;;;;;11.98;7.97;;;10.00;99.90;;;;;;4995003;28;20420;-71
2023/01/11 01:59:30;;;;;;;10.73;6.93;;;10.00;99.90;;;;;;4991885;28;20056;-72
2023/01/11 02:01:56;;;;;;;8.52;6.45;;;10.00;99.90;;;;;;4993006;28;20084;-72
2023/01/11 02:04:29;;;;;;;10.57;7.30;;;10.00;99.90;;;;;;4994667;28;20038;-71
2023/01/11 02:07:15;;;;;;;10.18;7.63;;;10.10;99.90;;;;;;4994961;28;20057;-71
2023/01/11 02:09:51;;;;;;;9.45;6.93;;;10.10;99.90;;;;;;4992859;28;20038;-72
2023/01/11 02:12:18;;;;;;;9.63;6.68;;;10.20;99.90;;;;;;4993911;28;20455;-72
2023/01/11 02:14:46;;;;;;;11.13;6.63;;;10.20;99.90;;;;;;4994809;28;20041;-71
2023/01/11 02:17:12;;;;;;;8.73;6.90;;;10.30;99.90;;;;;;4991848;28;20460;-71
2023/01/11 02:20:01;;;;;;;9.25;6.00;;;10.30;99.90;;;;;;4993866;28;20038;-71
2023/01/11 02:23:06;;;;;;;9.60;6.95;;;10.20;99.90;;;;;;5011419;28;20030;-71
2023/01/11 02:25:44;;;;;;;9.70;5.70;;;10.30;99.90;;;;;;4991225;28;20562;-72
2023/01/11 02:28:31;;;;;;;8.77;6.47;;;10.30;99.90;;;;;;4994258;28;20516;-72
2023/01/11 02:31:34;;;;;;;8.95;6.47;;;10.40;99.90;;;;;;4990870;28;20042;-72
2023/01/11 02:34:20;;;;;;;10.38;6.80;;;10.40;99.90;;;;;;4984762;28;20072;-71
2023/01/11 02:37:09;;;;;;;10.02;6.28;;;10.40;99.90;;;;;;4987247;28;20073;-71
2023/01/11 02:39:44;;;;;;;8.10;5.97;;;10.40;99.90;;;;;;4994462;28;20091;-71
2023/01/11 02:45:43;;;;;;;8.40;5.25;;;10.50;99.90;;;;;;5008786;28;20068;-71
2023/01/11 02:48:28;;;;;;;6.57;5.10;;;10.50;99.90;;;;;;4993900;28;20054;-71
2023/01/11 02:50:57;;;;;;;6.68;4.95;;;10.50;99.90;;;;;;4990702;28;20037;-71
2023/01/11 02:53:34;;;;;;;7.07;5.35;;;10.60;99.90;;;;;;4993622;28;20053;-72
2023/01/11 02:56:04;;;;;;;7.85;4.72;;;10.60;99.90;;;;;;4993983;28;20404;-72
2023/01/11 02:58:34;;;;;;;6.23;4.37;;;10.60;99.90;;;;;;4991586;28;20072;-72
2023/01/11 03:01:00;;;;;;;6.65;4.32;;;10.60;99.90;;;;;;5010789;28;20029;-72
2023/01/11 03:03:28;;;;;;;6.80;4.50;;;10.60;99.90;;;;;;4994244;28;20057;-72
2023/01/11 03:06:00;;;;;;;5.10;4.05;;;10.60;99.90;;;;;;5010559;28;20049;-71
2023/01/11 03:08:34;;;;;;;6.60;4.05;;;10.60;99.90;;;;;;4991139;28;20084;-70
2023/01/11 03:11:10;;;;;;;5.35;4.18;;;10.70;99.90;;;;;;4989174;28;20058;-72
2023/01/11 03:14:06;;;;;;;7.75;4.90;;;10.70;99.90;;;;;;4998528;28;20129;-72
2023/01/11 03:17:08;;;;;;;6.20;4.13;;;10.60;99.90;;;;;;4993594;28;20050;-72
2023/01/11 03:19:50;;;;;;;4.50;3.88;;;10.70;99.90;;;;;;4997807;28;20109;-72
2023/01/11 03:22:38;;;;;;;4.53;3.83;;;10.60;99.90;;;;;;5015678;28;20033;-71
2023/01/11 03:25:40;;;;;;;6.18;4.22;;;10.60;99.90;;;;;;4994564;28;20113;-72
2023/01/11 03:28:35;;;;;;;6.75;3.90;;;10.60;99.90;;;;;;4992678;28;20400;-72
2023/01/11 03:31:16;;;;;;;7.53;4.43;;;10.70;99.90;;;;;;5012119;28;20103;-71
2023/01/11 03:34:02;;;;;;;5.85;4.15;;;10.70;99.90;;;;;;5013551;28;20040;-71
2023/01/11 03:36:34;;;;;;;5.88;4.15;;;10.70;99.90;;;;;;5015127;28;20046;-71
2023/01/11 03:39:07;;;;;;;5.30;3.88;;;10.70;99.90;;;;;;4998226;28;20121;-72
2023/01/11 03:41:37;;;;;;;5.88;4.28;;;10.80;99.90;;;;;;4993667;28;20046;-71
2023/01/11 03:44:06;;;;;;;5.30;3.67;;;10.80;99.90;;;;;;4997056;28;20117;-71
2023/01/11 03:46:52;;;;;;;4.72;3.65;;;10.80;99.90;;;;;;5014231;28;20053;-71
2023/01/11 03:49:44;;;;;;;5.20;3.88;;;10.70;99.90;;;;;;4993524;28;20045;-71
2023/01/11 03:52:12;;;;;;;5.63;3.75;;;10.80;99.90;;;;;;5009377;22;20054;-64
2023/01/11 03:54:39;;;;;;;4.88;3.63;;;10.80;99.90;;;;;;4994244;28;20393;-64
2023/01/11 03:57:16;;;;;;;7.50;3.67;;;10.80;99.90;;;;;;4992951;28;20042;-64
2023/01/11 03:59:42;;;;;;;5.97;3.20;;;10.80;99.90;;;;;;4994061;28;20038;-64
2023/01/11 04:02:40;;;;;;;7.85;3.15;;;10.80;99.90;;;;;;4996633;28;20503;-64
2023/01/11 04:05:08;;;;;;;4.90;3.53;;;10.80;99.90;;;;;;4971090;28;20464;-64
2023/01/11 04:07:34;;;;;;;4.32;2.95;;;10.80;99.90;;;;;;4993240;28;20042;-64
2023/01/11 04:09:59;;;;;;;4.65;2.42;;;10.80;99.90;;;;;;4994120;28;20035;-64
2023/01/11 04:12:25;;;;;;;4.75;2.67;;;10.90;99.90;;;;;;4992935;28;20097;-65
2023/01/11 04:14:51;;;;;;;3.50;2.40;;;10.80;99.90;;;;;;4986452;28;20034;-64
2023/01/11 04:17:17;;;;;;;3.58;2.35;;;10.90;99.90;;;;;;4993286;28;20141;-65
2023/01/11 04:19:42;;;;;;;3.50;2.38;;;10.80;99.90;;;;;;4993897;28;20129;-65
2023/01/11 04:22:08;;;;;;;3.53;2.60;;;10.80;99.90;;;;;;4983666;28;20039;-65
2023/01/11 04:24:34;;;;;;;4.65;2.60;;;10.80;99.90;;;;;;4987817;28;20062;-65
2023/01/11 04:26:59;;;;;;;4.10;3.03;;;10.90;99.90;;;;;;4984395;28;20071;-65
2023/01/11 04:29:25;;;;;;;3.97;2.65;;;10.90;99.90;;;;;;4989608;28;20100;-65
2023/01/11 04:31:50;;;;;;;4.22;2.40;;;10.90;99.90;;;;;;4993234;28;20052;-64
2023/01/11 04:34:16;;;;;;;3.90;2.45;;;10.90;99.90;;;;;;4993502;28;20058;-63
2023/01/11 04:36:42;;;;;;;4.28;2.53;;;11.00;99.90;;;;;;4987933;28;20034;-64
2023/01/11 04:39:09;;;;;;;3.00;2.22;;;11.00;99.90;;;;;;4981492;28;20053;-65
2023/01/11 04:44:20;;;;;;;3.20;2.47;;;11.00;99.90;;;;;;4993279;28;20405;-64
2023/01/11 04:46:46;;;;;;;3.40;2.22;;;11.00;99.90;;;;;;4993693;28;20046;-65
2023/01/11 04:49:11;;;;;;;3.60;2.50;;;11.10;99.90;;;;;;4986167;28;20042;-65
2023/01/11 04:51:37;;;;;;;4.30;2.38;;;11.00;99.90;;;;;;4992570;28;20601;-65
2023/01/11 04:54:03;;;;;;;3.10;2.38;;;11.00;99.90;;;;;;4993235;28;20050;-65
2023/01/11 04:56:28;;;;;;;3.80;2.40;;;11.00;99.90;;;;;;4988687;28;20412;-65
2023/01/11 04:58:54;;;;;;;4.40;2.35;;;11.00;99.90;;;;;;4992838;28;20066;-65
2023/01/11 05:01:20;;;;;;;3.22;2.30;;;11.10;99.90;;;;;;4991314;28;20049;-65
2023/01/11 05:03:45;;;;;;;3.90;2.83;;;11.10;99.90;;;;;;4986865;28;20038;-65
2023/01/11 05:06:12;;;;;;;5.65;3.00;;;11.10;99.90;;;;;;4992944;28;20077;-65
2023/01/11 05:08:37;;;;;;;7.97;3.58;;;11.10;99.90;;;;;;4992915;28;20046;-65
2023/01/11 05:11:06;;;;;;;5.35;3.60;;;11.20;99.90;;;;;;4985877;28;20100;-65
2023/01/11 05:13:41;;;;;;;5.43;3.80;;;11.20;99.90;;;;;;4985483;28;20070;-65
2023/01/11 05:16:22;;;;;;;5.50;3.72;;;11.20;99.90;;;;;;4992584;28;20034;-64
2023/01/11 05:18:52;;;;;;;7.30;4.28;;;11.20;99.90;;;;;;4992024;28;20050;-63
2023/01/11 05:21:20;;;;;;;7.53;4.70;;;11.20;99.90;;;;;;4988410;28;20089;-63
2023/01/11 05:23:47;;;;;;;10.43;4.90;;;11.30;99.90;;;;;;4983706;28;20077;-65
2023/01/11 05:26:18;;;;;;;10.32;5.43;;;11.30;99.90;;;;;;4991720;28;20088;-65
2023/01/11 05:28:44;;;;;;;9.32;4.70;;;11.30;99.90;;;;;;4987565;28;20035;-65
2023/01/11 05:31:10;;;;;;;9.52;5.00;;;11.30;99.90;;;;;;4983542;28;20579;-65
2023/01/11 05:33:36;;;;;;;8.60;5.00;;;11.30;99.90;;;;;;4992283;28;20124;-63
2023/01/11 05:36:14;;;;;;;12.20;5.35;;;11.30;99.90;;;;;;4986874;28;20669;-65
2023/01/11 05:38:40;;;;;;;10.60;5.35;;;11.40;99.90;;;;;;4989427;28;20039;-65
2023/01/11 05:41:08;;;;;;;8.20;5.07;;;11.30;99.90;;;;;;4990834;28;20053;-63
2023/01/11 05:45:27;;;;;;;13.52;6.03;;;11.40;99.90;;;;;;4990388;28;20109;-64
2023/01/11 05:46:24;;;;;;;13.32;5.38;;;11.40;99.90;;;;;;4975256;28;20054;-64
2023/01/11 05:48:50;;;;;;;16.02;5.72;;;11.40;99.90;;;;;;4985895;28;20030;-63
2023/01/11 05:51:16;;;;;;;16.23;5.57;;;11.40;99.90;;;;;;4991272;28;20084;-64
2023/01/11 05:53:42;;;;;;;21.05;5.80;;;11.40;99.90;;;;;;4984432;28;20038;-65
2023/01/11 05:56:08;;;;;;;14.15;4.93;;;11.40;99.90;;;;;;4988919;28;20382;-64
2023/01/11 05:58:33;;;;;;;13.88;4.93;;;11.40;99.90;;;;;;4991699;28;20093;-65
2023/01/11 06:00:59;;;;;;;15.82;5.05;;;11.40;99.90;;;;;;4989336;28;20398;-65
2023/01/11 06:03:25;;;;;;;18.05;4.80;;;11.30;99.90;;;;;;4989536;28;20118;-64
2023/01/11 06:05:52;;;;;;;16.45;4.30;;;11.40;99.90;;;;;;4991636;28;20548;-64
2023/01/11 06:08:18;;;;;;;16.67;4.38;;;11.40;99.90;;;;;;4992316;28;20042;-65
2023/01/11 06:10:50;;;;;;;14.25;4.57;;;11.40;99.90;;;;;;4987061;28;20053;-67
2023/01/11 06:13:25;;;;;;;15.18;3.80;;;11.30;99.90;;;;;;4980775;28;20057;-66
2023/01/11 06:16:03;;;;;;;14.73;3.65;;;11.30;99.90;;;;;;4987911;28;20049;-64
2023/01/11 06:18:33;;;;;;;17.60;4.18;;;11.30;99.90;;;;;;4982920;28;20420;-66
2023/01/11 06:21:00;;;;;;;13.77;3.58;;;11.30;99.90;;;;;;4987107;28;20588;-66
2023/01/11 06:23:27;;;;;;;13.25;3.75;;;11.20;99.90;;;;;;4987657;28;20034;-66
2023/01/11 06:25:53;;;;;;;18.95;4.32;;;11.20;99.90;;;;;;4983253;28;20396;-65
2023/01/11 06:28:19;;;;;;;18.85;3.95;;;11.20;99.90;;;;;;4980251;28;20481;-67
2023/01/11 06:30:51;;;;;;;21.23;4.00;;;11.20;99.90;;;;;;4989511;28;20104;-64
2023/01/11 06:33:17;;;;;;;19.38;3.40;;;11.30;99.90;;;;;;4992403;28;20485;-63
2023/01/11 06:35:43;;;;;;;13.73;3.30;;;11.20;99.90;;;;;;4983219;28;20033;-63
2023/01/11 06:38:11;;;;;;;17.17;3.33;;;11.10;99.90;;;;;;4979586;28;20046;-64
2023/01/11 06:40:38;;;;;;;13.65;2.95;;;11.10;99.90;;;;;;4991954;28;20503;-64
2023/01/11 06:43:04;;;;;;;15.95;3.60;;;11.00;99.90;;;;;;4991073;28;20078;-63
2023/01/11 06:45:31;;;;;;;18.77;3.33;;;11.10;99.90;;;;;;4981240;28;20054;-63
2023/01/11 06:47:57;;;;;;;19.23;3.50;;;11.10;99.90;;;;;;4991701;28;20121;-64
2023/01/11 06:50:24;;;;;;;22.88;3.55;;;11.10;99.90;;;;;;4991806;28;20030;-64
2023/01/11 06:52:53;;;;;;;14.48;3.35;;;11.10;99.90;;;;;;4965884;28;20038;-63
2023/01/11 06:55:19;;;;;;;14.75;3.72;;;11.10;99.90;;;;;;4990345;28;20049;-64
2023/01/11 06:57:45;;;;;;;22.42;3.20;;;11.00;99.90;;;;;;4990617;28;20109;-63
2023/01/11 07:00:11;;;;;;;25.30;3.97;;;11.00;99.90;;;;;;4986678;28;20125;-64
2023/01/11 07:02:37;;;;;;;20.63;3.97;;;11.00;99.90;;;;;;4987773;28;20076;-64
2023/01/11 07:05:02;;;;;;;20.05;3.90;;;11.00;99.90;;;;;;4990500;28;20038;-63
2023/01/11 07:07:28;;;;;;;19.20;3.70;;;11.00;99.90;;;;;;4989511;28;20549;-64
2023/01/11 07:09:54;;;;;;;18.40;3.55;;;11.00;99.90;;;;;;4982970;28;20034;-63
2023/01/11 07:12:19;;;;;;;21.15;3.67;;;11.00;99.90;;;;;;4988855;28;20039;-65
2023/01/11 07:14:45;;;;;;;19.33;3.15;;;11.00;99.90;;;;;;4990914;28;20104;-64
2023/01/11 07:17:11;;;;;;;16.67;3.28;;;11.00;99.90;;;;;;4983265;28;20047;-63
2023/01/11 07:19:36;;;;;;;17.17;3.53;;;11.00;99.90;;;;;;4985831;28;20042;-66
2023/01/11 07:22:02;;;;;;;17.33;3.25;;;10.90;99.90;;;;;;4988552;28;20042;-66
2023/01/11 07:24:28;;;;;;;23.15;4.43;;;10.90;99.90;;;;;;4984155;28;20057;-64
2023/01/11 07:26:55;;;;;;;17.40;3.40;;;10.90;99.90;;;;;;4987716;28;20509;-63
2023/01/11 07:29:20;;;;;;;17.00;4.20;;;10.90;99.90;;;;;;4989226;28;20050;-63
2023/01/11 07:31:46;;;;;;;24.83;3.92;;;10.90;99.90;;;;;;4991878;28;20034;-63
2023/01/11 07:34:12;;;;;;;23.20;3.88;;;10.90;99.90;;;;;;4979196;28;20445;-63
2023/01/11 07:36:39;;;;;;;14.52;3.92;;;11.00;99.90;;;;;;4985822;28;20053;-63
2023/01/11 07:39:06;;;;;;;25.25;4.10;;;11.00;99.90;;;;;;4991114;28;20493;-64
2023/01/11 07:44:16;;;;;;;20.85;4.43;;;11.00;99.90;;;;;;4989613;28;20246;-63
2023/01/11 07:46:41;;;;;;;21.08;4.28;;;11.00;99.90;;;;;;4991781;28;20496;-63
2023/01/11 07:49:07;;;;;;;23.75;4.03;;;11.10;99.90;;;;;;4991965;28;20038;-63
2023/01/11 07:51:32;;;;;;;18.10;4.28;;;11.10;99.90;;;;;;4987924;28;20043;-64
2023/01/11 07:54:01;;;;;;;19.60;4.47;;;11.10;99.90;;;;;;4984005;28;20169;-64
2023/01/11 07:56:27;;;;;;;20.20;3.90;;;11.10;99.90;;;;;;4991454;28;20513;-63
2023/01/11 07:58:53;;;;;;;18.85;4.63;;;11.10;99.90;;;;;;4988004;28;20116;-64
2023/01/11 08:01:19;;;;;;;23.48;4.95;;;11.10;99.90;;;;;;4990265;28;20085;-64
2023/01/11 08:03:44;;;;;;;21.50;4.60;;;11.10;99.90;;;;;;4995278;28;20135;-64
2023/01/11 08:06:10;;;;;;;24.85;4.13;;;11.10;99.90;;;;;;4993617;28;20512;-65
2023/01/11 08:08:36;;;;;;;13.25;3.47;;;11.10;99.90;;;;;;4983100;28;20468;-63
2023/01/11 08:16:29;;;;;;;10.90;2.83;;;10.90;99.90;;;;;;4975444;28;20050;-63
2023/01/11 08:18:55;;;;;;;13.88;2.95;;;10.80;99.90;;;;;;4987593;28;20038;-63
2023/01/11 08:21:21;;;;;;;15.32;3.00;;;10.70;99.90;;;;;;4994306;28;20050;-64
2023/01/11 08:23:46;;;;;;;19.77;3.08;;;10.70;99.90;;;;;;4989373;28;20035;-63
2023/01/11 08:26:15;;;;;;;14.57;2.85;;;10.60;99.90;;;;;;4980925;28;20039;-64
2023/01/11 08:28:45;;;;;;;13.77;2.72;;;10.60;99.90;;;;;;4985819;28;20064;-64
2023/01/11 08:31:10;;;;;;;18.48;3.17;;;10.50;99.90;;;;;;4984494;28;20501;-65
2023/01/11 08:33:36;;;;;;;17.10;3.00;;;10.60;99.90;;;;;;4993054;28;20132;-63
2023/01/11 08:36:07;;;;;;;14.82;2.13;;;10.60;99.90;;;;;;4994590;28;20042;-63
2023/01/11 08:38:32;;;;;;;16.13;2.90;;;10.50;99.90;;;;;;4982145;28;20161;-63
2023/01/11 08:40:59;;;;;;;14.35;2.30;;;10.50;99.90;;;;;;4988685;28;20169;-63
2023/01/11 08:43:25;;;;;;;12.57;2.58;;;10.40;99.90;;;;;;4994573;28;20034;-63
2023/01/11 08:45:50;;;;;;;12.25;3.13;;;10.40;99.90;;;;;;4979969;28;20046;-64
2023/01/11 08:48:16;;;;;;;17.52;2.75;;;10.40;99.90;;;;;;4984077;28;20043;-63
2023/01/11 08:50:43;;;;;;;18.48;3.20;;;10.30;99.90;;;;;;4985167;28;20046;-63
2023/01/11 08:53:10;;;;;;;12.50;2.63;;;10.30;99.90;;;;;;4994273;28;20492;-64
2023/01/11 08:55:35;;;;;;;16.38;2.40;;;10.20;99.90;;;;;;4994368;28;20040;-63
2023/01/11 08:58:01;;;;;;;16.48;3.00;;;10.20;99.90;;;;;;4984551;28;20039;-64
2023/01/11 09:00:27;;;;;;;14.00;3.13;;;10.10;99.90;;;;;;4991196;28;20031;-63
2023/01/11 09:02:52;;;;;;;19.00;3.75;;;10.20;99.90;;;;;;4993590;28;20065;-63
2023/01/11 09:05:18;;;;;;;16.83;3.40;;;10.20;99.90;;;;;;4982700;28;20089;-63
2023/01/11 09:07:44;;;;;;;16.23;3.40;;;10.30;99.90;;;;;;4982592;28;20045;-63
2023/01/11 09:10:10;;;;;;;20.80;4.35;;;10.30;99.90;;;;;;4985355;28;20108;-64
2023/01/11 09:12:35;;;;;;;22.83;4.05;;;10.40;99.90;;;;;;4979131;28;20038;-63
2023/01/11 09:15:01;;;;;;;18.23;3.78;;;10.40;99.90;;;;;;4981533;28;20038;-64
2023/01/11 09:17:27;;;;;;;15.25;3.83;;;10.30;99.90;;;;;;4992600;28;20050;-63
2023/01/11 09:19:52;;;;;;;20.30;3.63;;;10.30;99.90;;;;;;4993191;28;20042;-64
2023/01/11 09:22:18;;;;;;;14.73;3.55;;;10.30;99.90;;;;;;4981654;28;20118;-63
2023/01/11 09:24:44;;;;;;;17.48;3.95;;;10.30;99.90;;;;;;4991856;28;20077;-63
2023/01/11 09:27:10;;;;;;;18.20;3.58;;;10.30;99.90;;;;;;4992252;28;20471;-64
2023/01/11 09:29:36;;;;;;;18.50;4.03;;;10.20;99.90;;;;;;4992634;28;20084;-63
2023/01/11 09:32:02;;;;;;;13.55;3.08;;;10.30;99.90;;;;;;4986567;28;20049;-63
2023/01/11 09:34:27;;;;;;;13.82;3.40;;;10.20;99.90;;;;;;4990854;28;20034;-64
2023/01/11 09:36:55;;;;;;;15.60;3.38;;;10.20;99.90;;;;;;4992251;28;20480;-64
2023/01/11 09:39:24;;;;;;;17.48;3.83;;;10.10;99.90;;;;;;4982637;28;20106;-63
2023/01/11 09:42:21;;;;;;;10.80;3.08;;;10.10;99.90;;;;;;4978679;28;20038;-63
2023/01/11 09:44:55;;;;;;;15.07;3.08;;;9.90;99.90;;;;;;4985645;28;20042;-65
2023/01/11 09:47:32;;;;;;;20.30;3.75;;;9.90;99.90;;;;;;4992962;28;20038;-65
2023/01/11 09:50:03;;;;;;;16.25;3.55;;;9.80;99.90;;;;;;4985046;28;20050;-65
2023/01/11 09:52:38;;;;;;;13.75;3.28;;;9.80;99.90;;;;;;4991259;28;20034;-65
2023/01/11 09:55:04;;;;;;;16.45;3.45;;;9.70;99.90;;;;;;4989145;28;20046;-64
2023/01/11 09:57:46;;;;;;;10.55;2.80;;;9.70;99.90;;;;;;4991584;28;20038;-65
2023/01/11 10:00:13;;;;;;;16.73;4.60;;;9.60;99.90;;;;;;5031386;22;20045;-66
2023/01/11 10:03:09;;;;;;;18.20;3.58;;;9.60;99.90;;;;;;5006917;28;20045;-66
2023/01/11 10:05:58;;;;;;;16.10;4.05;;;9.60;99.90;;;;;;4992836;28;20247;-66
2023/01/11 10:08:45;;;;;;;14.63;3.13;;;9.60;99.90;;;;;;5010157;28;20464;-66
2023/01/11 10:11:27;;;;;;;14.65;3.20;;;9.60;99.90;;;;;;5004370;28;20415;-66
2023/01/11 10:14:24;;;;;;;14.88;3.10;;;9.70;99.90;;;;;;5004893;28;20511;-66
2023/01/11 10:16:58;;;;;;;16.77;3.50;;;9.80;99.90;;;;;;5025288;28;20073;-66
2023/01/11 10:19:31;;;;;;;13.88;2.83;;;9.80;99.90;;;;;;5004216;28;20045;-66
2023/01/11 10:22:07;;;;;;;19.35;3.60;;;9.90;99.90;;;;;;4999141;28;20399;-66
2023/01/11 10:24:42;;;;;;;20.42;4.15;;;9.80;99.90;;;;;;5023041;28;20080;-66
2023/01/11 10:27:29;;;;;;;16.85;3.70;;;9.80;99.90;;;;;;5013361;28;20124;-66
2023/01/11 10:30:12;;;;;;;12.75;3.45;;;9.90;99.90;;;;;;5004273;28;20041;-66
2023/01/11 10:35:36;;;;;;;19.38;4.30;;;10.00;99.90;;;;;;5013630;28;20103;-66
2023/01/11 10:41:06;;;;;;;15.80;3.30;;;10.20;99.90;;;;;;5008274;28;20041;-66
2023/01/11 10:43:42;;;;;;;19.30;3.65;;;10.20;99.90;;;;;;5013981;28;20778;-66
2023/01/11 10:46:22;;;;;;;12.40;3.70;;;10.30;99.90;;;;;;5014505;28;20044;-66
2023/01/11 10:48:59;;;;;;;15.38;3.63;;;10.30;99.90;;;;;;5024194;28;20042;-66
2023/01/11 10:51:43;;;;;;;13.88;4.35;;;10.30;99.90;;;;;;5031487;28;20049;-67
2023/01/11 10:54:20;;;;;;;16.27;3.50;;;10.40;99.90;;;;;;5019805;28;20116;-67
2023/01/11 10:56:58;;;;;;;14.30;3.75;;;10.40;99.90;;;;;;4990870;28;20042;-67
2023/01/11 10:59:37;;;;;;;16.45;3.20;;;10.50;99.90;;;;;;5014306;22;20041;-67
2023/01/11 11:02:32;;;;;;;15.45;4.07;;;10.50;99.90;;;;;;5011844;28;20038;-67
2023/01/11 11:05:23;;;;;;;17.52;3.63;;;10.50;99.90;;;;;;5010916;28;20661;-67
2023/01/11 11:08:06;;;;;;;21.55;3.92;;;10.50;99.90;;;;;;5012682;28;20112;-67
2023/01/11 11:10:52;;;;;;;10.85;3.70;;;10.50;99.90;;;;;;4994053;28;20575;-68
2023/01/11 11:13:45;;;;;;;14.10;3.30;;;10.50;99.90;;;;;;4985882;28;20108;-67
2023/01/11 11:16:22;;;;;;;18.55;4.25;;;10.40;99.90;;;;;;4980466;28;20054;-66
2023/01/11 11:18:54;;;;;;;14.90;3.67;;;10.40;99.90;;;;;;4979070;28;20170;-66
2023/01/11 11:21:37;;;;;;;15.70;3.65;;;10.40;99.90;;;;;;4975560;28;20055;-66
2023/01/11 11:24:16;;;;;;;21.38;4.28;;;10.40;99.90;;;;;;4969496;28;20263;-67
2023/01/11 11:26:46;;;;;;;18.05;3.78;;;10.40;99.90;;;;;;4998097;28;20073;-67
2023/01/11 11:29:20;;;;;;;15.52;3.60;;;10.50;99.90;;;;;;4989523;28;20041;-67
2023/01/11 11:31:47;;;;;;;18.10;3.35;;;10.60;99.90;;;;;;4987857;28;20700;-67
2023/01/11 11:34:16;;;;;;;16.60;3.15;;;10.60;99.90;;;;;;4993504;28;20041;-67
2023/01/11 11:36:47;;;;;;;19.90;3.92;;;10.60;99.90;;;;;;5007287;28;20042;-67
2023/01/11 11:39:27;;;;;;;14.13;3.55;;;10.60;99.90;;;;;;4996094;28;20500;-67
2023/01/11 11:41:56;;;;;;;14.55;3.08;;;10.60;99.90;;;;;;4994776;28;20049;-67
2023/01/11 11:44:23;;;;;;;16.63;3.33;;;10.50;99.90;;;;;;4979910;28;20042;-67
2023/01/11 11:47:05;;;;;;;17.73;3.50;;;10.50;99.90;;;;;;5000826;28;20515;-67
2023/01/11 11:49:33;;;;;;;15.25;3.05;;;10.40;99.90;;;;;;4996446;28;20045;-67
2023/01/11 11:52:33;;;;;;;18.20;3.85;;;10.30;99.90;;;;;;4996976;28;20061;-67
2023/01/11 11:55:08;;;;;;;11.93;3.13;;;10.30;99.90;;;;;;4983637;28;20190;-68
2023/01/11 11:57:39;;;;;;;13.57;3.03;;;10.40;99.90;;;;;;5005648;28;20121;-67
2023/01/11 12:00:08;;;;;;;15.45;3.03;;;10.50;99.90;;;;;;4985600;28;20120;-68
2023/01/11 12:02:39;;;;;;;13.43;2.67;;;10.50;99.90;;;;;;5001605;28;20038;-68
2023/01/11 12:05:08;;;;;;;15.57;2.70;;;10.40;99.90;;;;;;5000791;28;20408;-68
2023/01/11 12:07:36;;;;;;;17.25;3.55;;;10.40;99.90;;;;;;5002360;28;20042;-67
2023/01/11 12:10:08;;;;;;;12.60;2.85;;;10.30;99.90;;;;;;5001836;28;20476;-67
2023/01/11 12:12:54;;;;;;;22.60;4.20;;;10.30;99.90;;;;;;4986381;28;20056;-67
2023/01/11 12:15:22;;;;;;;22.13;3.80;;;10.20;99.90;;;;;;4996583;28;20120;-67
2023/01/11 12:17:49;;;;;;;10.63;2.65;;;10.20;99.90;;;;;;4991447;28;20057;-67
2023/01/11 12:20:20;;;;;;;15.82;3.53;;;10.20;99.90;;;;;;5006498;28;20381;-69
2023/01/11 12:22:46;;;;;;;;;;;10.20;99.90;;;;;;4988225;28;20038;-68
2023/01/11 12:25:23;;;;;;;11.23;2.80;;;10.20;99.90;;;;;;4990664;28;19929;-68
2023/01/11 12:28:01;;;;;;;15.93;2.85;;;10.20;99.90;;;;;;5002884;28;20045;-68
2023/01/11 12:30:52;;;;;;;15.48;3.03;;;10.20;99.90;;;;;;4994435;28;20408;-68
2023/01/11 12:33:57;;;;;;;16.17;2.70;;;10.20;99.90;;;;;;5001452;28;20138;-68
2023/01/11 12:36:40;;;;;;;14.05;2.55;;;10.30;99.90;;;;;;4965486;28;20049;-68
2023/01/11 12:39:24;;;;;;;13.90;2.67;;;10.20;99.90;;;;;;4996427;28;20038;-68
2023/01/11 12:42:01;;;;;;;18.80;2.53;;;10.30;99.90;;;;;;4988889;28;20034;-68
2023/01/11 12:44:53;;;;;;;21.38;3.17;;;10.30;99.90;;;;;;4993514;28;20500;-68
2023/01/11 12:47:37;;;;;;;;;;;10.30;99.90;;;;;;4992784;28;20050;-68
2023/01/11 12:50:08;;;;;;;18.02;2.95;;;10.40;99.90;;;;;;4991330;28;19968;-68
2023/01/11 12:52:40;;;;;;;11.55;2.95;;;10.50;99.90;;;;;;4989692;28;20125;-68
2023/01/11 12:55:37;;;;;;;16.83;2.88;;;10.50;99.90;;;;;;4991571;28;20041;-68
2023/01/11 12:58:27;;;;;;;12.88;2.53;;;10.50;99.90;;;;;;4988738;28;20137;-68
2023/01/11 13:01:20;;;;;;;22.60;3.03;;;10.40;99.90;;;;;;4991267;28;20100;-68
2023/01/11 13:03:49;;;;;;;18.67;3.00;;;10.30;99.90;;;;;;4972345;28;20570;-68
2023/01/11 13:06:43;;;;;;;17.45;3.55;;;10.20;99.90;;;;;;4996293;28;20037;-68
2023/01/11 13:09:28;;;;;;;14.88;2.90;;;10.20;99.90;;;;;;4994754;28;20074;-67
2023/01/11 13:12:20;;;;;;;16.52;2.85;;;10.20;99.90;;;;;;4959524;28;20073;-68
2023/01/11 13:15:15;;;;;;;17.33;3.15;;;10.30;99.90;;;;;;4975301;28;20145;-68
2023/01/11 13:17:51;;;;;;;13.02;2.72;;;10.40;99.90;;;;;;4988561;28;20049;-69
2023/01/11 13:20:29;;;;;;;13.77;3.15;;;10.60;99.90;;;;;;4978922;28;20404;-67
2023/01/11 13:23:40;;;;;;;16.25;3.58;;;10.60;99.90;;;;;;4993551;28;20052;-68
2023/01/11 13:26:14;;;;;;;17.70;3.22;;;10.70;99.90;;;;;;4979565;28;20042;-68
2023/01/11 13:28:45;;;;;;;17.73;3.33;;;10.80;99.90;;;;;;4960082;28;20038;-68
2023/01/11 13:31:12;;;;;;;12.63;2.73;;;10.80;99.90;;;;;;4975499;28;20042;-68
2023/01/11 13:33:43;;;;;;;16.70;3.53;;;10.70;99.90;;;;;;5007802;28;20088;-69
2023/01/11 13:36:13;;;;;;;17.65;3.28;;;10.80;99.90;;;;;;4985628;28;20044;-68